Time;durP1;ratioP1;P1;durP2;ratioP2;P2;SDS_P1;SDS_P2;PMS_P1;PMS_P2;Temp;Humidity;BMP_temperature;BMP_pressure;BME280_temperature;BME280_humidity;BME280_pressure;Samples;Min_cycle;Max_cycle;Signal;HPM_P1;HPM_P2
2023/09/17 00:01:05;;;;;;;13.17;12.03;;;21.70;99.90;;;;;;5013039;28;20434;-66
2023/09/17 00:03:32;;;;;;;13.60;12.50;;;21.70;99.90;;;;;;5013832;28;20438;-69
2023/09/17 00:05:58;;;;;;;13.47;12.47;;;21.70;99.90;;;;;;5012371;28;20199;-69
2023/09/17 00:08:24;;;;;;;13.37;12.27;;;21.70;99.90;;;;;;5011518;28;20410;-69
2023/09/17 00:10:50;;;;;;;12.97;12.07;;;21.70;99.90;;;;;;5012208;28;20421;-69
2023/09/17 00:13:16;;;;;;;15.17;13.87;;;21.70;99.90;;;;;;5011613;28;20634;-69
2023/09/17 00:15:42;;;;;;;14.20;13.10;;;21.70;99.90;;;;;;5013009;28;20642;-69
2023/09/17 00:18:08;;;;;;;14.67;13.37;;;21.70;99.90;;;;;;5012722;28;20422;-69
2023/09/17 00:20:34;;;;;;;12.60;11.70;;;21.70;99.90;;;;;;5013206;28;20414;-69
2023/09/17 00:23:00;;;;;;;13.47;12.27;;;21.70;99.90;;;;;;5013131;28;20190;-69
2023/09/17 00:25:28;;;;;;;12.27;11.40;;;21.70;99.90;;;;;;5012608;28;20207;-69
2023/09/17 00:27:54;;;;;;;13.00;12.00;;;21.80;99.90;;;;;;5013492;28;20413;-69
2023/09/17 00:30:19;;;;;;;13.17;12.17;;;21.70;99.90;;;;;;5012504;28;20421;-69
2023/09/17 00:32:45;;;;;;;13.17;11.93;;;21.70;99.90;;;;;;5013591;28;20166;-69
2023/09/17 00:35:14;;;;;;;12.27;11.30;;;21.70;99.90;;;;;;5012702;28;20178;-70
2023/09/17 00:37:41;;;;;;;12.53;11.43;;;21.70;99.90;;;;;;5012766;28;20422;-70
2023/09/17 00:40:11;;;;;;;12.73;11.83;;;21.70;99.90;;;;;;5011682;28;20469;-63
2023/09/17 00:42:37;;;;;;;12.47;11.60;;;21.70;99.90;;;;;;5013158;28;20418;-69
2023/09/17 00:45:04;;;;;;;12.50;11.70;;;21.70;99.90;;;;;;5013111;28;20418;-70
2023/09/17 00:47:30;;;;;;;13.00;12.10;;;21.70;99.90;;;;;;5012588;28;20402;-70
2023/09/17 00:49:57;;;;;;;12.00;11.20;;;21.70;99.90;;;;;;5013124;28;20402;-70
2023/09/17 00:52:23;;;;;;;12.80;11.90;;;21.70;99.90;;;;;;5011984;28;20421;-69
2023/09/17 00:54:51;;;;;;;13.03;12.10;;;21.70;99.90;;;;;;5012409;28;20524;-69
2023/09/17 00:57:17;;;;;;;12.07;11.07;;;21.70;99.90;;;;;;5012499;28;20798;-69
2023/09/17 00:59:49;;;;;;;11.47;10.63;;;21.70;99.90;;;;;;5013279;28;20405;-70
2023/09/17 01:02:18;;;;;;;11.73;10.83;;;21.60;99.90;;;;;;5012196;28;20468;-70
2023/09/17 01:04:49;;;;;;;12.23;11.33;;;21.60;99.90;;;;;;5011366;28;20422;-68
2023/09/17 01:07:21;;;;;;;11.77;10.97;;;21.60;99.90;;;;;;5010787;28;20441;-70
2023/09/17 01:09:48;;;;;;;11.30;10.50;;;21.60;99.90;;;;;;5012882;28;20406;-70
2023/09/17 01:12:14;;;;;;;11.80;11.00;;;21.60;99.90;;;;;;5010446;28;20459;-70
2023/09/17 01:14:40;;;;;;;11.83;10.90;;;21.60;99.90;;;;;;5011357;28;20933;-70
2023/09/17 01:17:10;;;;;;;12.50;11.50;;;21.60;99.90;;;;;;5012469;28;20902;-70
2023/09/17 01:19:37;;;;;;;12.90;11.90;;;21.60;99.90;;;;;;5012957;28;20410;-70
2023/09/17 01:22:13;;;;;;;12.07;11.00;;;21.60;99.90;;;;;;5012344;28;20920;-71
2023/09/17 01:25:04;;;;;;;11.80;11.00;;;21.60;99.90;;;;;;5012959;28;20398;-70
2023/09/17 01:27:32;;;;;;;11.60;10.70;;;21.60;99.90;;;;;;5011590;28;21237;-70
2023/09/17 01:29:58;;;;;;;13.90;12.80;;;21.60;99.90;;;;;;5012501;28;20940;-70
2023/09/17 01:32:24;;;;;;;13.30;12.30;;;21.60;99.90;;;;;;5012183;28;20402;-69
2023/09/17 01:34:53;;;;;;;13.20;12.20;;;21.60;99.90;;;;;;5009716;28;20422;-70
2023/09/17 01:37:28;;;;;;;13.33;12.30;;;21.60;99.90;;;;;;5011866;28;20467;-70
2023/09/17 01:40:03;;;;;;;14.53;13.43;;;21.60;99.90;;;;;;5012741;28;20465;-70
2023/09/17 01:42:29;;;;;;;14.57;13.33;;;21.50;99.90;;;;;;5012016;28;20743;-69
2023/09/17 01:44:57;;;;;;;14.83;13.63;;;21.50;99.90;;;;;;5013002;28;20806;-70
2023/09/17 01:47:24;;;;;;;15.70;14.50;;;21.40;99.90;;;;;;5015855;28;20412;-70
2023/09/17 01:49:51;;;;;;;15.50;14.30;;;21.40;99.90;;;;;;5016219;28;20545;-68
2023/09/17 01:52:22;;;;;;;15.67;14.47;;;21.40;99.90;;;;;;5015470;28;20448;-70
2023/09/17 01:54:50;;;;;;;15.13;14.03;;;21.30;99.90;;;;;;5016292;28;20394;-69
2023/09/17 01:57:15;;;;;;;17.20;15.70;;;21.20;99.90;;;;;;5015666;28;20425;-69
2023/09/17 01:59:41;;;;;;;17.50;16.00;;;21.20;99.90;;;;;;5016133;28;20409;-69
2023/09/17 02:02:07;;;;;;;16.27;14.90;;;21.10;99.90;;;;;;5015926;28;20167;-68
2023/09/17 02:04:32;;;;;;;15.53;14.23;;;21.10;99.90;;;;;;5014664;28;20627;-69
2023/09/17 02:06:58;;;;;;;15.53;14.23;;;21.20;99.90;;;;;;5015980;28;20222;-70
2023/09/17 02:09:24;;;;;;;15.30;14.07;;;21.30;99.90;;;;;;5015388;28;20171;-69
2023/09/17 02:11:50;;;;;;;14.53;13.20;;;21.30;99.90;;;;;;5015753;28;20175;-69
2023/09/17 02:14:16;;;;;;;14.60;13.43;;;21.40;99.90;;;;;;5030229;28;20565;-69
2023/09/17 02:16:43;;;;;;;15.30;14.07;;;21.40;99.90;;;;;;5015606;28;20903;-70
2023/09/17 02:19:12;;;;;;;15.37;14.17;;;21.50;99.90;;;;;;5015811;28;20471;-69
2023/09/17 02:21:37;;;;;;;14.07;12.97;;;21.50;99.90;;;;;;5015453;28;20405;-69
2023/09/17 02:24:04;;;;;;;14.47;13.13;;;21.50;99.90;;;;;;5015779;28;20410;-69
2023/09/17 02:26:29;;;;;;;16.50;15.10;;;21.60;99.90;;;;;;5014812;28;20209;-70
2023/09/17 02:28:55;;;;;;;14.50;13.30;;;21.60;99.90;;;;;;5015631;28;20481;-70
2023/09/17 02:31:21;;;;;;;14.70;13.50;;;21.60;99.90;;;;;;5015054;28;20179;-70
2023/09/17 02:33:47;;;;;;;13.83;12.73;;;21.60;99.90;;;;;;5013813;28;20771;-69
2023/09/17 02:36:13;;;;;;;13.60;12.50;;;21.60;99.90;;;;;;5026110;28;20183;-70
2023/09/17 02:38:43;;;;;;;14.27;13.27;;;21.60;99.90;;;;;;5013547;28;20835;-68
2023/09/17 02:41:08;;;;;;;14.93;13.83;;;21.60;99.90;;;;;;4995807;28;20922;-70
2023/09/17 02:43:36;;;;;;;14.07;12.90;;;21.60;99.90;;;;;;4994909;28;20731;-70
2023/09/17 02:46:03;;;;;;;13.57;12.67;;;21.70;99.90;;;;;;4995376;28;20589;-70
2023/09/17 02:48:32;;;;;;;14.07;12.97;;;21.60;99.90;;;;;;4995092;28;20402;-69
2023/09/17 02:50:58;;;;;;;14.03;12.50;;;21.60;99.90;;;;;;4999891;28;20505;-70
2023/09/17 02:53:24;;;;;;;14.83;13.53;;;21.60;99.90;;;;;;5014581;28;20402;-69
2023/09/17 02:55:49;;;;;;;13.10;12.20;;;21.60;99.90;;;;;;5013434;28;20422;-69
2023/09/17 02:58:15;;;;;;;14.10;12.90;;;21.60;99.90;;;;;;5014012;28;20414;-61
2023/09/17 03:00:43;;;;;;;14.37;13.17;;;21.60;99.90;;;;;;5013559;28;20202;-70
2023/09/17 03:03:09;;;;;;;13.57;12.57;;;21.60;99.90;;;;;;5013594;28;20213;-70
2023/09/17 03:05:34;;;;;;;13.60;12.60;;;21.60;99.90;;;;;;5013098;28;20941;-70
2023/09/17 03:08:00;;;;;;;13.77;12.60;;;21.60;99.90;;;;;;5014942;28;20819;-70
2023/09/17 03:10:26;;;;;;;13.40;12.30;;;21.60;99.90;;;;;;5013786;28;20217;-71
2023/09/17 03:12:52;;;;;;;13.70;12.70;;;21.60;99.90;;;;;;5014681;28;20175;-71
2023/09/17 03:15:18;;;;;;;14.27;13.27;;;21.50;99.90;;;;;;5012629;28;20186;-70
2023/09/17 03:17:44;;;;;;;13.43;12.43;;;21.60;99.90;;;;;;5014817;28;20402;-70
2023/09/17 03:20:22;;;;;;;13.30;12.30;;;21.50;99.90;;;;;;5014758;28;20603;-70
2023/09/17 03:22:49;;;;;;;14.03;13.03;;;21.60;99.90;;;;;;5014841;28;20155;-70
2023/09/17 03:25:15;;;;;;;16.70;15.40;;;21.60;99.90;;;;;;5014273;28;20445;-70
2023/09/17 03:27:43;;;;;;;16.77;15.40;;;21.60;99.90;;;;;;5013660;28;20414;-70
2023/09/17 03:30:09;;;;;;;17.50;16.00;;;21.60;99.90;;;;;;5014270;28;20425;-70
2023/09/17 03:32:35;;;;;;;17.40;15.83;;;21.60;99.90;;;;;;5013588;28;20578;-70
2023/09/17 03:35:01;;;;;;;20.33;18.53;;;21.60;99.90;;;;;;5012577;28;20508;-68
2023/09/17 03:37:27;;;;;;;16.70;15.20;;;21.60;99.90;;;;;;5003087;28;20177;-70
2023/09/17 03:40:11;;;;;;;15.50;14.20;;;21.60;99.90;;;;;;5014119;28;20458;-70
2023/09/17 03:42:37;;;;;;;15.20;13.77;;;21.60;99.90;;;;;;5012739;28;20174;-70
2023/09/17 03:45:09;;;;;;;14.50;13.40;;;21.60;99.90;;;;;;5013560;28;20801;-70
2023/09/17 03:47:36;;;;;;;15.03;13.60;;;21.60;99.90;;;;;;5013547;28;20410;-70
2023/09/17 03:50:06;;;;;;;14.93;13.73;;;21.60;99.90;;;;;;5013811;28;20450;-70
2023/09/17 03:52:34;;;;;;;14.93;13.80;;;21.60;99.90;;;;;;5013289;28;20430;-70
2023/09/17 03:55:01;;;;;;;15.37;14.10;;;21.50;99.90;;;;;;5014024;28;20449;-70
2023/09/17 03:57:27;;;;;;;14.77;13.67;;;21.50;99.90;;;;;;5013420;28;20398;-70
2023/09/17 03:59:54;;;;;;;15.27;14.07;;;21.40;99.90;;;;;;5014208;28;20433;-70
2023/09/17 04:02:20;;;;;;;15.50;14.17;;;21.30;99.90;;;;;;5012672;28;20764;-66
2023/09/17 04:04:47;;;;;;;16.13;14.93;;;21.30;99.90;;;;;;5012506;28;20821;-69
2023/09/17 04:07:13;;;;;;;16.00;14.77;;;21.30;99.90;;;;;;5013788;28;20479;-70
2023/09/17 04:09:39;;;;;;;15.20;13.90;;;21.30;99.90;;;;;;5012925;28;20460;-69
2023/09/17 04:12:05;;;;;;;15.43;14.23;;;21.40;99.90;;;;;;5013388;28;20417;-69
2023/09/17 04:14:32;;;;;;;15.60;14.40;;;21.40;99.90;;;;;;5012555;28;20207;-70
2023/09/17 04:17:02;;;;;;;15.17;13.87;;;21.40;99.90;;;;;;5013554;28;20445;-70
2023/09/17 04:19:32;;;;;;;16.20;14.90;;;21.40;99.90;;;;;;5013009;28;20468;-70
2023/09/17 04:21:58;;;;;;;15.10;13.90;;;21.40;99.90;;;;;;5013518;28;20405;-70
2023/09/17 04:24:25;;;;;;;15.23;13.97;;;21.40;99.90;;;;;;5012956;28;20402;-69
2023/09/17 04:26:52;;;;;;;15.20;13.90;;;21.40;99.90;;;;;;5011885;28;20486;-69
2023/09/17 04:29:19;;;;;;;14.83;13.67;;;21.40;99.90;;;;;;5012843;28;20773;-70
2023/09/17 04:31:46;;;;;;;15.00;13.90;;;21.40;99.90;;;;;;5012404;28;20417;-70
2023/09/17 04:34:13;;;;;;;15.53;14.33;;;21.40;99.90;;;;;;5011102;28;20429;-69
2023/09/17 04:36:39;;;;;;;15.07;13.87;;;21.40;99.90;;;;;;5012292;28;20413;-69
2023/09/17 04:39:05;;;;;;;14.60;13.60;;;21.30;99.90;;;;;;5013066;28;20426;-70
2023/09/17 04:41:31;;;;;;;15.70;14.40;;;21.40;99.90;;;;;;5010880;28;20564;-70
2023/09/17 04:43:56;;;;;;;16.17;14.67;;;21.40;99.90;;;;;;5013198;28;20171;-69
2023/09/17 04:46:22;;;;;;;16.57;15.07;;;21.30;99.90;;;;;;5012359;28;20206;-63
2023/09/17 04:48:48;;;;;;;16.10;14.90;;;21.40;99.90;;;;;;5013439;28;20221;-70
2023/09/17 04:51:16;;;;;;;14.90;13.70;;;21.40;99.90;;;;;;5013239;28;20171;-70
2023/09/17 04:53:43;;;;;;;16.37;15.07;;;21.30;99.90;;;;;;5012346;28;20178;-69
2023/09/17 04:56:09;;;;;;;15.67;14.57;;;21.40;99.90;;;;;;5013123;28;20406;-69
2023/09/17 04:58:34;;;;;;;16.30;15.10;;;21.40;99.90;;;;;;5012460;28;20398;-69
2023/09/17 05:01:00;;;;;;;18.53;16.83;;;21.40;99.90;;;;;;5013383;28;20163;-69
2023/09/17 05:03:26;;;;;;;21.80;20.00;;;21.40;99.90;;;;;;5010903;28;20183;-69
2023/09/17 05:05:51;;;;;;;21.57;19.67;;;21.40;99.90;;;;;;5011719;28;20210;-69
2023/09/17 05:08:18;;;;;;;22.20;20.30;;;21.40;99.90;;;;;;5012960;28;20251;-69
2023/09/17 05:10:44;;;;;;;22.70;20.53;;;21.40;99.90;;;;;;5012611;28;20175;-69
2023/09/17 05:13:10;;;;;;;25.57;23.30;;;21.40;99.90;;;;;;5013009;28;20840;-69
2023/09/17 05:15:36;;;;;;;27.30;24.77;;;21.30;99.90;;;;;;5012382;28;20612;-70
2023/09/17 05:18:09;;;;;;;26.40;24.00;;;21.40;99.90;;;;;;5012530;28;20228;-69
2023/09/17 05:20:41;;;;;;;28.67;25.67;;;21.30;99.90;;;;;;5014078;28;20402;-69
2023/09/17 05:23:07;;;;;;;32.13;29.10;;;21.30;99.90;;;;;;5016197;28;20905;-69
2023/09/17 05:25:34;;;;;;;26.50;24.00;;;21.30;99.90;;;;;;5014838;28;20469;-69
2023/09/17 05:28:03;;;;;;;27.30;24.90;;;21.30;99.90;;;;;;5016681;28;20410;-70
2023/09/17 05:30:29;;;;;;;26.80;24.30;;;21.30;99.90;;;;;;5015949;28;20418;-69
2023/09/17 05:32:55;;;;;;;26.83;24.33;;;21.30;99.90;;;;;;5016412;28;20529;-69
2023/09/17 05:35:22;;;;;;;24.87;22.57;;;21.30;99.90;;;;;;5014935;28;20655;-69
2023/09/17 05:37:48;;;;;;;25.93;23.57;;;21.30;99.90;;;;;;5015956;28;20503;-69
2023/09/17 05:40:13;;;;;;;27.00;24.30;;;21.30;99.90;;;;;;5015598;28;20237;-69
2023/09/17 05:42:39;;;;;;;38.17;34.07;;;21.30;99.90;;;;;;5015576;28;20182;-69
2023/09/17 05:45:05;;;;;;;27.00;24.60;;;21.40;99.90;;;;;;5015737;28;20585;-69
2023/09/17 05:47:31;;;;;;;29.43;26.63;;;21.30;99.90;;;;;;5015725;28;20174;-69
2023/09/17 05:49:59;;;;;;;28.60;26.03;;;21.30;99.90;;;;;;5016281;28;20406;-70
2023/09/17 05:52:25;;;;;;;28.93;26.40;;;21.30;99.90;;;;;;5016264;28;20271;-70
2023/09/17 05:54:51;;;;;;;27.60;25.03;;;21.30;99.90;;;;;;5016188;28;20472;-69
2023/09/17 05:57:17;;;;;;;26.70;24.10;;;21.20;99.90;;;;;;5016144;28;20406;-69
2023/09/17 05:59:43;;;;;;;27.27;24.57;;;21.20;99.90;;;;;;5015500;28;20182;-70
2023/09/17 06:02:11;;;;;;;26.70;24.40;;;21.30;99.90;;;;;;5007191;28;20449;-70
2023/09/17 06:04:37;;;;;;;24.03;21.80;;;21.30;99.90;;;;;;5008640;28;20594;-74
2023/09/17 06:07:03;;;;;;;25.43;23.03;;;21.30;99.90;;;;;;5015319;28;20465;-73
2023/09/17 06:09:30;;;;;;;24.70;22.50;;;21.30;99.90;;;;;;5014923;28;20464;-73
2023/09/17 06:11:57;;;;;;;22.40;20.40;;;21.40;99.90;;;;;;5013960;28;20421;-73
2023/09/17 06:14:23;;;;;;;25.50;23.20;;;21.40;99.90;;;;;;5015105;28;20520;-74
2023/09/17 06:16:49;;;;;;;24.47;22.17;;;21.40;99.90;;;;;;5015484;28;20489;-73
2023/09/17 06:19:15;;;;;;;22.93;20.80;;;21.40;99.90;;;;;;5015725;28;20440;-73
2023/09/17 06:21:44;;;;;;;23.07;20.77;;;21.40;99.90;;;;;;5013854;28;20214;-73
2023/09/17 06:24:09;;;;;;;24.60;22.27;;;21.40;99.90;;;;;;5015689;28;20214;-73
2023/09/17 06:26:35;;;;;;;24.83;22.13;;;21.50;99.90;;;;;;5014512;28;20495;-74
2023/09/17 06:29:01;;;;;;;24.57;22.27;;;21.50;99.90;;;;;;5015686;28;20243;-73
2023/09/17 06:31:27;;;;;;;23.50;21.37;;;21.50;99.90;;;;;;5013775;28;20183;-73
2023/09/17 06:33:54;;;;;;;22.30;20.40;;;21.40;99.90;;;;;;5014521;28;20215;-73
2023/09/17 06:36:21;;;;;;;23.43;21.43;;;21.40;99.90;;;;;;5015462;28;20737;-73
2023/09/17 06:38:48;;;;;;;22.60;20.40;;;21.40;99.90;;;;;;5015002;28;20783;-74
2023/09/17 06:41:13;;;;;;;22.10;19.93;;;21.50;99.90;;;;;;5015387;28;20477;-73
2023/09/17 06:43:39;;;;;;;22.07;19.93;;;21.50;99.90;;;;;;5014429;28;20413;-73
2023/09/17 06:46:05;;;;;;;21.43;19.57;;;21.60;99.90;;;;;;5014081;28;20253;-73
2023/09/17 06:48:31;;;;;;;21.10;19.20;;;21.60;99.90;;;;;;5001439;28;20671;-72
2023/09/17 06:50:57;;;;;;;21.37;18.90;;;21.60;99.90;;;;;;5010881;28;20430;-65
2023/09/17 06:53:23;;;;;;;21.87;19.87;;;21.70;99.90;;;;;;5013674;28;20588;-72
2023/09/17 06:55:50;;;;;;;20.50;18.70;;;21.70;99.90;;;;;;5014454;28;20413;-72
2023/09/17 06:58:16;;;;;;;18.40;16.80;;;21.90;99.90;;;;;;5014682;28;20924;-71
2023/09/17 07:00:47;;;;;;;19.57;17.67;;;22.00;99.90;;;;;;5014337;28;20416;-71
2023/09/17 07:03:13;;;;;;;18.30;16.77;;;22.10;99.90;;;;;;5014140;28;20414;-71
2023/09/17 07:05:43;;;;;;;16.93;15.63;;;22.20;99.90;;;;;;4994590;28;20451;-72
2023/09/17 07:08:09;;;;;;;17.77;16.27;;;22.30;99.90;;;;;;4995026;28;20421;-71
2023/09/17 07:10:34;;;;;;;18.73;17.03;;;22.40;99.90;;;;;;4994686;28;20744;-71
2023/09/17 07:13:00;;;;;;;18.07;16.43;;;22.40;99.90;;;;;;4995309;28;20576;-71
2023/09/17 07:15:26;;;;;;;16.40;15.10;;;22.50;99.90;;;;;;4995402;28;20628;-71
2023/09/17 07:17:53;;;;;;;16.20;14.90;;;22.60;99.90;;;;;;4994669;28;20623;-71
2023/09/17 07:20:19;;;;;;;16.47;14.97;;;22.60;99.90;;;;;;5008469;28;20175;-71
2023/09/17 07:22:49;;;;;;;15.87;14.57;;;22.70;99.90;;;;;;5012750;28;20768;-71
2023/09/17 07:25:15;;;;;;;15.43;14.23;;;22.70;99.90;;;;;;5011082;28;20258;-71
2023/09/17 07:27:41;;;;;;;12.67;11.60;;;22.80;99.90;;;;;;5012856;28;20418;-78
2023/09/17 07:30:07;;;;;;;12.60;11.60;;;22.80;99.90;;;;;;5013222;28;20421;-77
2023/09/17 07:32:33;;;;;;;13.03;11.87;;;22.90;99.90;;;;;;5013233;28;20441;-76
2023/09/17 07:35:02;;;;;;;12.70;11.80;;;22.90;99.90;;;;;;5013344;28;20430;-74
2023/09/17 07:37:28;;;;;;;12.60;11.60;;;23.10;99.90;;;;;;5010964;28;20580;-78
2023/09/17 07:39:59;;;;;;;12.83;11.93;;;23.10;99.90;;;;;;5012343;28;20528;-72
2023/09/17 07:42:25;;;;;;;13.13;12.10;;;23.10;99.90;;;;;;5012715;28;20430;-71
2023/09/17 07:44:50;;;;;;;13.00;12.00;;;23.20;99.90;;;;;;5011907;28;20589;-71
2023/09/17 07:47:17;;;;;;;13.27;12.33;;;23.20;99.90;;;;;;5013478;28;20207;-71
2023/09/17 07:49:43;;;;;;;12.83;11.83;;;23.20;99.90;;;;;;5011073;28;20222;-66
2023/09/17 07:52:09;;;;;;;13.53;12.33;;;23.30;99.90;;;;;;5013269;28;20441;-69
2023/09/17 07:54:42;;;;;;;15.63;14.07;;;23.30;99.90;;;;;;5011551;28;20422;-70
2023/09/17 07:57:12;;;;;;;16.37;14.83;;;23.30;99.90;;;;;;5012938;28;20422;-70
2023/09/17 07:59:39;;;;;;;15.03;13.80;;;23.40;99.90;;;;;;5012374;28;20441;-70
2023/09/17 08:02:04;;;;;;;13.53;12.43;;;23.40;99.90;;;;;;5012236;28;20414;-68
2023/09/17 08:04:30;;;;;;;22.10;19.77;;;23.50;99.90;;;;;;5013000;28;20949;-70
2023/09/17 08:06:59;;;;;;;23.70;21.50;;;23.60;99.90;;;;;;5012483;28;20281;-70
2023/09/17 08:09:25;;;;;;;20.80;18.80;;;23.60;99.90;;;;;;5013172;28;20206;-69
2023/09/17 08:11:51;;;;;;;15.90;14.50;;;23.60;99.90;;;;;;5012777;28;20469;-69
2023/09/17 08:14:17;;;;;;;16.20;14.77;;;23.60;99.90;;;;;;5012895;28;20437;-74
2023/09/17 08:16:43;;;;;;;12.03;11.27;;;23.50;99.90;;;;;;5010901;28;20917;-69
2023/09/17 08:19:10;;;;;;;10.87;10.17;;;23.50;99.90;;;;;;5010664;28;20464;-74
2023/09/17 08:21:35;;;;;;;9.47;8.87;;;23.50;99.90;;;;;;5012146;28;20233;-72
2023/09/17 08:24:01;;;;;;;10.10;9.30;;;23.20;99.90;;;;;;5012705;28;20422;-75
2023/09/17 08:26:30;;;;;;;10.03;9.27;;;23.20;99.90;;;;;;5009033;28;20217;-73
2023/09/17 08:28:56;;;;;;;10.07;9.37;;;23.30;99.90;;;;;;5012439;28;20186;-75
2023/09/17 08:31:25;;;;;;;9.50;8.70;;;23.30;99.90;;;;;;5013332;28;20890;-74
2023/09/17 08:33:52;;;;;;;8.97;8.40;;;23.30;99.90;;;;;;5012502;28;20426;-73
2023/09/17 08:36:23;;;;;;;10.13;9.27;;;23.50;99.90;;;;;;5013072;28;20428;-74
2023/09/17 08:38:50;;;;;;;9.00;8.50;;;23.50;99.90;;;;;;5012023;28;20784;-74
2023/09/17 08:41:18;;;;;;;9.77;8.90;;;23.40;99.90;;;;;;5012922;28;20802;-74
2023/09/17 08:43:46;;;;;;;44.83;37.63;;;23.40;99.90;;;;;;5011889;28;20425;-72
2023/09/17 08:46:12;;;;;;;15.77;14.37;;;23.50;99.90;;;;;;5012901;28;20941;-72
2023/09/17 08:48:38;;;;;;;10.43;9.73;;;23.50;99.90;;;;;;5010464;28;20905;-70
2023/09/17 08:51:07;;;;;;;9.30;8.80;;;23.50;99.90;;;;;;5010866;28;20517;-75
2023/09/17 08:53:44;;;;;;;9.00;8.40;;;23.60;99.90;;;;;;5007891;28;20849;-72
2023/09/17 08:56:14;;;;;;;10.10;9.30;;;23.60;99.90;;;;;;5009836;28;20182;-71
2023/09/17 08:58:52;;;;;;;9.20;8.63;;;23.70;99.90;;;;;;5012332;28;20565;-71
2023/09/17 09:01:19;;;;;;;8.17;7.73;;;23.80;99.90;;;;;;5012505;28;20468;-73
2023/09/17 09:03:46;;;;;;;6.77;6.37;;;23.90;99.90;;;;;;5012346;28;20457;-71
2023/09/17 09:06:14;;;;;;;7.13;6.73;;;23.70;99.90;;;;;;5012336;28;20492;-74
2023/09/17 09:08:42;;;;;;;7.90;7.30;;;23.80;99.90;;;;;;5012045;28;20417;-71
2023/09/17 09:11:09;;;;;;;7.43;6.93;;;23.90;99.90;;;;;;5012353;28;20433;-72
2023/09/17 09:13:36;;;;;;;6.77;6.20;;;23.90;99.90;;;;;;5012519;28;20418;-72
2023/09/17 09:16:03;;;;;;;7.10;6.47;;;24.00;99.90;;;;;;5011698;28;20422;-72
2023/09/17 09:18:29;;;;;;;7.70;7.20;;;24.00;99.90;;;;;;5009683;28;20425;-72
2023/09/17 09:20:55;;;;;;;7.23;6.73;;;23.90;99.90;;;;;;5010269;28;20422;-72
2023/09/17 09:23:23;;;;;;;22.87;20.43;;;24.10;99.90;;;;;;5009783;28;20430;-72
2023/09/17 09:25:48;;;;;;;28.30;25.47;;;24.30;99.90;;;;;;5009738;28;20470;-71
2023/09/17 09:28:14;;;;;;;10.17;9.40;;;24.60;99.90;;;;;;5012181;28;20565;-71
2023/09/17 09:30:43;;;;;;;7.93;7.47;;;24.80;99.90;;;;;;5011780;28;20175;-71
2023/09/17 09:33:09;;;;;;;7.50;7.10;;;25.00;99.90;;;;;;4994453;28;20252;-71
2023/09/17 09:35:35;;;;;;;7.30;6.60;;;25.10;99.90;;;;;;5012638;28;20448;-72
2023/09/17 09:38:01;;;;;;;7.07;6.70;;;25.20;99.90;;;;;;5012071;28;20225;-75
2023/09/17 09:40:28;;;;;;;6.90;6.50;;;25.20;99.90;;;;;;5011040;28;20454;-72
2023/09/17 09:42:54;;;;;;;7.10;6.50;;;25.30;99.90;;;;;;5011262;28;20433;-71
2023/09/17 09:45:22;;;;;;;6.90;6.40;;;25.30;99.90;;;;;;5012149;28;20421;-73
2023/09/17 09:47:51;;;;;;;7.63;7.07;;;25.40;99.90;;;;;;5009553;28;20190;-73
2023/09/17 09:50:21;;;;;;;7.80;7.10;;;25.60;99.90;;;;;;5007493;28;20434;-73
2023/09/17 09:52:48;;;;;;;7.47;6.87;;;25.70;99.90;;;;;;5011720;28;20421;-72
2023/09/17 09:55:14;;;;;;;6.63;6.23;;;25.70;99.90;;;;;;5011115;28;20426;-74
2023/09/17 09:57:41;;;;;;;7.10;6.60;;;26.00;99.90;;;;;;4994918;28;20410;-74
2023/09/17 10:00:12;;;;;;;7.90;7.30;;;26.10;99.90;;;;;;5010442;28;20452;-74
2023/09/17 10:02:38;;;;;;;7.03;6.53;;;26.40;99.90;;;;;;5010730;28;20827;-72
2023/09/17 10:05:05;;;;;;;41.73;37.63;;;26.60;99.90;;;;;;5006067;28;20508;-73
2023/09/17 10:07:31;;;;;;;27.37;24.90;;;26.80;99.90;;;;;;5010156;28;20477;-70
2023/09/17 10:09:58;;;;;;;8.80;6.10;;;26.70;99.90;;;;;;5009963;28;20433;-74
2023/09/17 10:12:26;;;;;;;7.40;6.90;;;26.70;99.90;;;;;;5007450;28;20410;-72
2023/09/17 10:14:52;;;;;;;6.83;6.23;;;26.90;99.90;;;;;;4993349;28;20502;-73
2023/09/17 10:17:18;;;;;;;6.07;5.77;;;27.10;99.90;;;;;;5001621;28;20441;-73
2023/09/17 10:19:46;;;;;;;5.73;5.43;;;27.20;99.90;;;;;;5010421;28;20426;-72
2023/09/17 10:22:13;;;;;;;6.87;6.30;;;27.40;99.90;;;;;;5015909;28;20174;-72
2023/09/17 10:24:41;;;;;;;5.63;5.23;;;27.50;99.90;;;;;;5015960;28;20765;-72
2023/09/17 10:27:08;;;;;;;5.20;4.90;;;27.60;99.10;;;;;;5015676;28;20449;-72
2023/09/17 10:29:38;;;;;;;5.90;5.53;;;27.60;97.90;;;;;;5015322;28;20482;-74
2023/09/17 10:32:04;;;;;;;5.80;5.40;;;27.70;99.80;;;;;;5014978;28;20421;-70
2023/09/17 10:34:32;;;;;;;5.43;5.13;;;27.90;97.90;;;;;;5015493;28;20767;-74
2023/09/17 10:37:00;;;;;;;5.10;4.90;;;27.90;97.20;;;;;;5015060;28;20877;-72
2023/09/17 10:39:27;;;;;;;5.33;5.03;;;28.00;97.90;;;;;;5015415;28;20452;-73
2023/09/17 10:41:55;;;;;;;5.60;5.20;;;28.20;97.00;;;;;;5013980;28;20470;-73
2023/09/17 10:44:23;;;;;;;5.87;5.57;;;28.10;95.70;;;;;;5013657;28;20532;-73
2023/09/17 10:46:51;;;;;;;5.37;5.00;;;28.10;95.80;;;;;;5013224;28;20536;-72
2023/09/17 10:49:17;;;;;;;5.67;5.37;;;28.10;96.40;;;;;;5015378;28;20413;-73
2023/09/17 10:51:46;;;;;;;5.27;4.97;;;28.00;95.30;;;;;;5014843;28;20409;-65
2023/09/17 10:54:13;;;;;;;6.33;5.80;;;28.20;95.90;;;;;;5015137;28;20410;-72
2023/09/17 10:56:42;;;;;;;6.30;5.90;;;28.30;95.90;;;;;;5013802;28;20414;-73
2023/09/17 10:59:13;;;;;;;4.83;4.57;;;28.50;95.60;;;;;;5013938;28;20468;-73
2023/09/17 11:01:41;;;;;;;5.23;4.63;;;28.40;94.70;;;;;;5015119;28;20452;-73
2023/09/17 11:04:15;;;;;;;5.43;5.13;;;28.40;94.60;;;;;;5014264;28;20406;-74
2023/09/17 11:06:44;;;;;;;5.77;5.37;;;28.50;94.80;;;;;;5014868;28;20449;-74
2023/09/17 11:09:11;;;;;;;5.27;4.97;;;28.60;94.70;;;;;;5025796;28;20432;-76
2023/09/17 11:11:37;;;;;;;5.80;5.40;;;28.80;93.70;;;;;;5034820;28;20408;-74
2023/09/17 11:14:04;;;;;;;6.00;5.60;;;28.80;93.20;;;;;;5027075;28;20426;-71
2023/09/17 11:16:32;;;;;;;5.73;5.43;;;28.90;94.10;;;;;;5017689;28;20937;-72
2023/09/17 11:19:05;;;;;;;74.77;68.27;;;28.80;94.10;;;;;;5010148;28;20426;-72
2023/09/17 11:21:34;;;;;;;16.47;14.87;;;28.90;93.40;;;;;;5010277;28;20462;-75
2023/09/17 11:24:05;;;;;;;6.33;5.93;;;28.90;93.20;;;;;;5013333;28;20925;-75
2023/09/17 11:26:33;;;;;;;5.37;5.07;;;29.00;93.70;;;;;;5012148;28;20457;-72
2023/09/17 11:28:59;;;;;;;5.63;5.23;;;29.00;93.60;;;;;;5007970;28;20472;-71
2023/09/17 11:31:28;;;;;;;5.90;5.60;;;29.10;93.90;;;;;;5013425;28;20410;-71
2023/09/17 11:33:55;;;;;;;5.93;5.63;;;29.20;92.20;;;;;;5012005;28;20187;-72
2023/09/17 11:36:21;;;;;;;6.30;5.80;;;29.00;92.80;;;;;;5012088;28;20426;-74
2023/09/17 11:38:48;;;;;;;6.13;5.83;;;29.10;92.60;;;;;;5011373;28;20183;-71
2023/09/17 11:41:20;;;;;;;5.40;5.10;;;29.20;92.00;;;;;;5013817;28;20284;-72
2023/09/17 11:43:48;;;;;;;6.80;6.50;;;29.20;92.10;;;;;;5012604;28;20508;-69
2023/09/17 11:46:15;;;;;;;7.10;6.70;;;29.30;91.90;;;;;;5013202;28;20961;-68
2023/09/17 11:48:44;;;;;;;6.90;6.50;;;29.20;92.30;;;;;;5012956;28;20417;-62
2023/09/17 11:51:27;;;;;;;6.23;5.93;;;29.20;92.00;;;;;;5010952;28;20954;-64
2023/09/17 11:54:07;;;;;;;6.03;5.73;;;29.40;92.80;;;;;;5010782;28;20802;-63
2023/09/17 11:56:35;;;;;;;6.37;5.97;;;29.60;91.60;;;;;;5011969;28;20473;-64
2023/09/17 11:59:15;;;;;;;6.40;5.50;;;29.60;91.40;;;;;;5011716;28;20418;-63
2023/09/17 12:01:43;;;;;;;6.40;5.97;;;29.60;91.30;;;;;;5009803;28;20910;-63
2023/09/17 12:04:10;;;;;;;6.13;5.73;;;29.70;90.70;;;;;;5012865;28;20425;-63
2023/09/17 12:06:41;;;;;;;5.50;5.20;;;29.70;90.30;;;;;;5011928;28;20457;-64
2023/09/17 12:09:17;;;;;;;5.33;4.90;;;29.70;90.40;;;;;;5012670;28;20625;-63
2023/09/17 12:11:47;;;;;;;6.73;6.23;;;29.70;90.20;;;;;;5011757;28;20409;-65
2023/09/17 12:14:14;;;;;;;5.37;5.07;;;29.70;90.80;;;;;;5013414;28;20425;-64
2023/09/17 12:16:40;;;;;;;5.60;5.10;;;29.40;89.30;;;;;;5012873;28;20425;-64
2023/09/17 12:19:06;;;;;;;5.80;5.50;;;29.30;91.70;;;;;;5010514;28;20440;-64
2023/09/17 12:21:38;;;;;;;12.33;11.47;;;29.20;91.20;;;;;;5011634;28;20179;-63
2023/09/17 12:24:06;;;;;;;30.53;27.67;;;29.20;91.90;;;;;;5011097;28;20874;-63
2023/09/17 12:29:29;;;;;;;7.60;7.00;;;28.90;91.10;;;;;;5010798;28;21045;-64
2023/09/17 12:31:55;;;;;;;7.07;6.57;;;28.80;91.30;;;;;;5012668;28;20402;-65
2023/09/17 12:34:21;;;;;;;7.27;6.77;;;28.70;91.90;;;;;;5012613;28;20170;-65
2023/09/17 12:36:47;;;;;;;7.47;7.07;;;28.70;91.90;;;;;;5012659;28;20420;-65